Weather at Aerodromo de Sao Cosmado [CLOSED]

Public forecast

Using degrees Celsius for public forecast. Weather courtesy of forecast.io.

Closest aviation weather report (METAR) to Aerodromo de Sao Cosmado

Closest report is Ovar Air Base, 43.8 nm (81.1 km) WSW. Retrieved 2020/10/24 18:00 UTC (2 hours ago):

LPOV 241800Z 19015G26KT 9999 FEW020 BKN040 17/14 Q1020

Closest aviation forecast (TAF) to Aerodromo de Sao Cosmado

Closest forecast is Ovar Air Base, 43.8 nm (81.1 km) WSW. Retrieved 2020/10/24 18:09 UTC (2 hours ago):

TAF LPOV 241700Z 2418/2518 18015KT 9999 SCT020 BKN040 TEMPO 2418/2502 19015G28KT 4000 SHRA BKN014 BECMG 2501/2503 7000 -RA SCT008 BKN020 TEMPO 2502/2512 3000 RADZ BR SCT004 BKN008 PROB40 TEMPO 2502/2507 20020G35KT 1200 +RA BR BKN005 BECMG 2510/1513 27012KT 9999 NSW SCT030 TEMPO 2512/2518 28015G25KT 7000 -SHRA BKN014